createdAt,value
2019-03-08T00:03:01.564Z,10.78
2019-03-08T00:08:07.811Z,11.01
2019-03-08T00:13:14.239Z,10.51
2019-03-08T00:18:21.588Z,10.27
2019-03-08T00:23:28.593Z,10.76
2019-03-08T00:28:34.328Z,10.52
2019-03-08T00:33:41.016Z,10.71
2019-03-08T00:38:47.563Z,10.51
2019-03-08T00:43:53.719Z,10.71
2019-03-08T00:48:59.968Z,10.86
2019-03-08T00:54:06.790Z,10.68
2019-03-08T00:59:15.471Z,10.58
2019-03-08T01:04:21.453Z,10.78
2019-03-08T01:09:27.104Z,10.89
2019-03-08T01:14:33.209Z,10.54
2019-03-08T01:19:39.395Z,10.55
2019-03-08T01:24:45.571Z,10.10
2019-03-08T01:29:51.794Z,10.08
2019-03-08T01:35:01.771Z,10.21
2019-03-08T01:40:09.451Z,10.09
2019-03-08T01:45:16.734Z,10.20
2019-03-08T01:50:27.868Z,10.15
2019-03-08T01:55:35.409Z,10.05
2019-03-08T02:00:44.481Z,9.89
2019-03-08T02:05:53.909Z,9.77
2019-03-08T02:11:01.748Z,10.03
2019-03-08T02:16:08.327Z,9.75
2019-03-08T02:21:16.979Z,9.99
2019-03-08T02:26:27.435Z,10.10
2019-03-08T02:31:36.811Z,10.03
2019-03-08T02:36:43.859Z,9.86
2019-03-08T02:41:51.467Z,9.71
2019-03-08T02:46:58.931Z,9.93
2019-03-08T02:52:06.897Z,10.06
2019-03-08T02:57:13.064Z,9.51
2019-03-08T03:02:18.806Z,9.80
2019-03-08T03:07:25.921Z,9.81
2019-03-08T03:12:34.131Z,9.73
2019-03-08T03:17:40.184Z,9.88
2019-03-08T03:22:45.864Z,9.94
2019-03-08T03:27:52.694Z,9.87
2019-03-08T03:32:59.987Z,9.97
2019-03-08T03:38:06.431Z,9.88
2019-03-08T03:43:15.033Z,10.05
2019-03-08T03:48:22.108Z,9.96
2019-03-08T03:53:28.227Z,10.18
2019-03-08T03:58:34.038Z,10.03
2019-03-08T04:03:39.620Z,9.99
2019-03-08T04:08:46.150Z,10.14
2019-03-08T04:13:52.322Z,10.07
2019-03-08T04:18:58.828Z,9.85
2019-03-08T04:24:05.670Z,10.32
2019-03-08T04:29:11.436Z,10.37
2019-03-08T04:34:17.366Z,10.46
2019-03-08T04:39:25.125Z,10.31
2019-03-08T04:44:31.051Z,10.27
2019-03-08T04:49:38.024Z,10.37
2019-03-08T04:54:44.358Z,10.43
2019-03-08T04:59:50.054Z,10.23
2019-03-08T05:04:55.793Z,10.48
2019-03-08T05:10:01.466Z,10.11
2019-03-08T05:15:09.118Z,10.56
2019-03-08T05:20:14.945Z,10.54
2019-03-08T05:25:20.473Z,10.33
2019-03-08T05:30:26.807Z,10.75
2019-03-08T05:35:32.862Z,10.43
2019-03-08T05:40:40.065Z,10.67
2019-03-08T05:45:46.141Z,10.66
2019-03-08T05:50:51.868Z,10.35
2019-03-08T05:55:57.579Z,10.63
2019-03-08T06:01:04.370Z,10.67
2019-03-08T06:06:11.751Z,10.58
2019-03-08T06:11:17.327Z,10.31
2019-03-08T06:16:24.637Z,10.60
2019-03-08T06:21:31.340Z,10.63
2019-03-08T06:26:37.116Z,10.15
2019-03-08T06:31:42.717Z,10.36
2019-03-08T06:36:48.793Z,10.74
2019-03-08T06:41:54.916Z,10.27
2019-03-08T06:47:00.690Z,10.63
2019-03-08T06:52:06.247Z,10.50
2019-03-08T06:57:12.176Z,10.39
2019-03-08T07:02:19.483Z,10.53
2019-03-08T07:07:25.794Z,10.63
2019-03-08T07:12:33.085Z,10.73
2019-03-08T07:17:39.679Z,10.41
2019-03-08T07:22:58.856Z,10.47
2019-03-08T07:28:06.493Z,10.52
2019-03-08T07:33:16.861Z,10.74
2019-03-08T07:38:33.266Z,10.52
2019-03-08T07:43:43.769Z,10.48
2019-03-08T07:48:58.324Z,10.55
2019-03-08T07:54:11.747Z,10.23
2019-03-08T07:59:21.990Z,10.17
2019-03-08T08:04:42.828Z,10.30
2019-03-08T08:09:51.105Z,10.61
2019-03-08T08:15:14.849Z,10.27
2019-03-08T08:26:28.447Z,10.56
2019-03-08T08:31:37.632Z,10.91
2019-03-08T08:36:51.292Z,10.70
2019-03-08T08:42:00.167Z,10.88
2019-03-08T08:47:24.203Z,10.37
2019-03-08T08:52:31.459Z,10.63
2019-03-08T08:57:43.712Z,10.66
2019-03-08T09:03:07.845Z,10.31
2019-03-08T09:08:25.913Z,10.50
2019-03-08T09:13:35.924Z,10.57
2019-03-08T09:18:52.993Z,10.51
2019-03-08T09:24:12.151Z,10.43
2019-03-08T09:29:20.716Z,10.87
2019-03-08T09:34:46.430Z,10.33
2019-03-08T09:39:58.254Z,9.69
2019-03-08T09:45:11.717Z,9.60
2019-03-08T09:50:20.411Z,9.95
2019-03-08T09:55:27.951Z,9.84
2019-03-08T10:00:45.359Z,9.79
2019-03-08T10:06:02.830Z,9.34
2019-03-08T10:11:13.181Z,8.72
2019-03-08T10:16:20.767Z,9.12
2019-03-08T10:21:45.023Z,8.89
2019-03-08T10:27:08.010Z,9.14
2019-03-08T10:32:17.191Z,9.36
2019-03-08T10:37:37.866Z,9.37
2019-03-08T10:42:46.963Z,9.38
2019-03-08T10:47:56.467Z,9.80
2019-03-08T10:53:08.918Z,9.71
2019-03-08T10:58:27.846Z,9.81
2019-03-08T11:03:37.880Z,9.65
2019-03-08T11:08:45.676Z,8.57
2019-03-08T11:14:02.008Z,7.92
2019-03-08T11:19:15.373Z,7.78
2019-03-08T11:24:22.965Z,7.72
2019-03-08T11:29:37.359Z,7.57
2019-03-08T11:34:51.929Z,7.81
2019-03-08T11:39:55.608Z,7.87
2019-03-08T11:45:19.594Z,7.93
2019-03-08T11:50:43.752Z,8.43
2019-03-08T11:55:52.623Z,8.21
2019-03-08T12:01:05.962Z,8.45
2019-03-08T12:06:22.337Z,9.41
2019-03-08T12:11:30.487Z,9.26
2019-03-08T12:16:57.147Z,9.81
2019-03-08T12:22:10.985Z,9.74
2019-03-08T12:27:35.568Z,10.38
2019-03-08T12:32:55.521Z,10.44
2019-03-08T12:38:06.641Z,11.34
2019-03-08T12:43:23.535Z,10.25
2019-03-08T12:48:47.244Z,10.19
2019-03-08T12:54:09.645Z,9.26
2019-03-08T12:59:23.870Z,9.58
2019-03-08T13:04:31.904Z,10.01
2019-03-08T13:09:43.292Z,10.71
2019-03-08T13:14:50.304Z,10.13
2019-03-08T13:19:56.365Z,10.00
2019-03-08T13:25:02.828Z,9.96
2019-03-08T13:30:15.067Z,9.86
2019-03-08T13:35:21.398Z,9.93
2019-03-08T13:40:27.178Z,10.36
2019-03-08T13:45:34.729Z,10.22
2019-03-08T13:50:41.187Z,11.09
2019-03-08T13:55:47.909Z,10.86
2019-03-08T14:00:56.048Z,11.40
2019-03-08T14:06:02.599Z,10.97
2019-03-08T14:11:10.011Z,11.21
2019-03-08T14:16:18.406Z,11.55
2019-03-08T14:21:24.329Z,11.01
2019-03-08T14:26:31.834Z,10.84
2019-03-08T14:31:49.235Z,10.74
2019-03-08T14:36:54.642Z,10.73
2019-03-08T14:42:19.319Z,11.24
2019-03-08T14:47:29.370Z,11.14
2019-03-08T14:52:35.696Z,10.97
2019-03-08T14:57:42.131Z,11.69
2019-03-08T15:02:48.679Z,11.29
2019-03-08T15:07:55.188Z,11.25
2019-03-08T15:13:01.474Z,11.00
2019-03-08T15:18:09.677Z,10.65
2019-03-08T15:23:17.126Z,11.15
2019-03-08T15:28:27.161Z,12.39
2019-03-08T15:33:35.632Z,11.70
2019-03-08T15:38:45.263Z,11.84
2019-03-08T15:43:52.742Z,11.98
2019-03-08T15:49:00.497Z,12.46
2019-03-08T15:54:07.942Z,12.46
2019-03-08T15:59:14.161Z,12.44
2019-03-08T16:04:21.104Z,12.66
2019-03-08T16:09:30.410Z,12.28
2019-03-08T16:14:35.993Z,12.16
2019-03-08T16:19:44.353Z,12.88
2019-03-08T16:24:51.487Z,12.20
2019-03-08T16:30:02.999Z,11.65
2019-03-08T16:35:07.812Z,11.71
2019-03-08T16:40:17.981Z,11.43
2019-03-08T16:45:31.079Z,11.86
2019-03-08T16:50:40.279Z,11.05
2019-03-08T16:55:50.283Z,10.89
2019-03-08T17:01:06.990Z,10.79
2019-03-08T17:06:31.478Z,10.52
2019-03-08T17:11:38.994Z,10.91
2019-03-08T17:16:56.699Z,10.56
2019-03-08T17:22:03.912Z,10.26
2019-03-08T17:27:13.290Z,10.57
2019-03-08T17:32:21.764Z,11.66
2019-03-08T17:37:36.696Z,11.85
2019-03-08T17:42:49.903Z,11.66
2019-03-08T17:48:04.335Z,10.88
2019-03-08T17:53:28.301Z,10.37
2019-03-08T17:58:35.741Z,10.24
2019-03-08T18:03:45.767Z,9.98
2019-03-08T18:08:55.894Z,9.87
2019-03-08T18:14:20.250Z,9.48
2019-03-08T18:19:30.352Z,10.06
2019-03-08T18:24:54.487Z,9.82
2019-03-08T18:30:03.887Z,9.79
2019-03-08T18:35:14.835Z,9.48
2019-03-08T18:40:28.923Z,9.84
2019-03-08T18:45:43.042Z,10.03
2019-03-08T18:50:55.330Z,9.78
2019-03-08T18:56:04.061Z,9.76
2019-03-08T19:01:28.112Z,9.70
2019-03-08T19:06:39.180Z,9.54
2019-03-08T19:11:59.150Z,9.36
2019-03-08T19:17:06.540Z,9.55
2019-03-08T19:22:30.960Z,9.43
2019-03-08T19:27:44.860Z,9.67
2019-03-08T19:33:04.027Z,9.52
2019-03-08T19:38:17.179Z,9.32
2019-03-08T19:43:30.621Z,9.51
2019-03-08T19:48:46.637Z,9.08
2019-03-08T19:54:10.565Z,9.37
2019-03-08T19:59:33.957Z,9.27
2019-03-08T20:04:42.056Z,9.30
2019-03-08T20:10:06.512Z,9.27
2019-03-08T20:15:29.448Z,8.98
2019-03-08T20:20:56.945Z,8.91
2019-03-08T20:26:10.786Z,8.90
2019-03-08T20:31:18.667Z,8.56
2019-03-08T20:36:39.977Z,8.45
2019-03-08T20:41:56.880Z,8.37
2019-03-08T20:47:04.915Z,8.65
2019-03-08T20:52:10.566Z,8.62
2019-03-08T20:57:18.652Z,8.62
2019-03-08T21:02:24.302Z,8.50
2019-03-08T21:07:30.520Z,8.31
2019-03-08T21:12:36.090Z,8.34
2019-03-08T21:17:43.756Z,8.60
2019-03-08T21:22:50.009Z,8.56
2019-03-08T21:27:56.241Z,8.42
2019-03-08T21:33:02.409Z,8.40
2019-03-08T21:38:09.234Z,8.75
2019-03-08T21:43:15.204Z,8.33
2019-03-08T21:48:21.581Z,8.49
2019-03-08T21:53:27.502Z,8.34
2019-03-08T21:58:34.961Z,8.47
2019-03-08T22:03:41.100Z,8.79
2019-03-08T22:08:49.436Z,8.66
2019-03-08T22:13:55.383Z,8.35
2019-03-08T22:19:01.818Z,8.21
2019-03-08T22:24:13.470Z,8.07
2019-03-08T22:29:15.249Z,8.44
2019-03-08T22:34:21.254Z,8.15
2019-03-08T22:39:27.037Z,8.35
2019-03-08T22:44:32.959Z,8.41
2019-03-08T22:49:39.240Z,8.29
2019-03-08T22:54:44.842Z,8.41
2019-03-08T22:59:50.441Z,8.58
2019-03-08T23:04:56.995Z,8.53
2019-03-08T23:10:03.308Z,8.50
2019-03-08T23:15:09.610Z,8.47
2019-03-08T23:20:16.042Z,8.76
2019-03-08T23:25:21.677Z,8.76
2019-03-08T23:30:28.657Z,8.47
2019-03-08T23:35:35.195Z,8.71
2019-03-08T23:40:41.136Z,8.55
2019-03-08T23:45:47.037Z,8.52
2019-03-08T23:50:52.670Z,8.49
2019-03-08T23:55:58.316Z,8.25
